Time;durP1;ratioP1;P1;durP2;ratioP2;P2;SDS_P1;SDS_P2;PMS_P1;PMS_P2;Temp;Humidity;BMP_temperature;BMP_pressure;BME280_temperature;BME280_humidity;BME280_pressure;Samples;Min_cycle;Max_cycle;Signal;HPM_P1;HPM_P2
2022/01/19 00:01:32;;;;;;;63.75;29.67;;;;;;;-0.88;83.37;101712.29;1790916;80;34902;-71
2022/01/19 00:04:00;;;;;;;61.77;26.33;;;;;;;-0.88;83.43;101718.13;1793482;80;25506;-70
2022/01/19 00:06:28;;;;;;;71.73;28.13;;;;;;;-0.88;83.49;101725.58;1793673;80;25665;-70
2022/01/19 00:08:54;;;;;;;70.28;28.52;;;;;;;-0.91;83.56;101717.99;1764282;80;27555;-70
2022/01/19 00:11:22;;;;;;;69.22;28.55;;;;;;;-0.91;83.48;101730.47;1793453;80;25452;-70
2022/01/19 00:13:49;;;;;;;66.92;28.20;;;;;;;-0.91;83.51;101729.95;1792781;80;26242;-71
2022/01/19 00:16:18;;;;;;;56.90;25.68;;;;;;;-0.92;83.81;101716.86;1792884;80;25640;-70
2022/01/19 00:18:45;;;;;;;64.37;26.93;;;;;;;-0.95;83.43;101708.80;1793207;80;25550;-71
2022/01/19 00:21:12;;;;;;;64.65;26.40;;;;;;;-0.98;83.46;101699.88;1793070;80;27591;-71
2022/01/19 00:23:38;;;;;;;65.22;28.02;;;;;;;-0.97;83.70;101694.37;1792961;80;25388;-70
2022/01/19 00:26:05;;;;;;;63.98;28.98;;;;;;;-0.99;83.75;101682.30;1791538;80;25671;-69
2022/01/19 00:28:33;;;;;;;62.43;26.97;;;;;;;-1.05;83.56;101662.67;1792909;80;25405;-69
2022/01/19 00:31:00;;;;;;;62.48;28.25;;;;;;;-1.06;83.51;101660.20;1764503;80;25497;-71
2022/01/19 00:33:28;;;;;;;71.60;29.65;;;;;;;-1.09;83.52;101662.77;1764135;80;27952;-70
2022/01/19 00:35:55;;;;;;;64.53;27.90;;;;;;;-1.08;83.58;101670.22;1793040;80;25436;-70
2022/01/19 00:38:21;;;;;;;69.05;27.98;;;;;;;-1.09;83.67;101676.05;1793106;80;25598;-70
2022/01/19 00:40:49;;;;;;;67.97;27.98;;;;;;;-1.10;84.41;101686.86;1793021;80;26112;-72
2022/01/19 00:43:15;;;;;;;67.53;28.23;;;;;;;-1.15;84.13;101674.16;1793162;80;25535;-71
2022/01/19 00:45:43;;;;;;;70.42;27.77;;;;;;;-1.18;83.94;101683.84;1793175;80;28167;-71
2022/01/19 00:48:10;;;;;;;63.17;26.45;;;;;;;-1.21;83.75;101690.38;1764252;80;25671;-71
2022/01/19 00:50:36;;;;;;;62.00;26.57;;;;;;;-1.23;83.92;101693.72;1788564;80;25404;-71
2022/01/19 00:53:03;;;;;;;62.83;25.88;;;;;;;-1.23;83.89;101688.41;1793086;80;25511;-70
2022/01/19 00:55:30;;;;;;;57.67;25.65;;;;;;;-1.22;83.84;101684.75;1793208;80;25452;-71
2022/01/19 00:57:56;;;;;;;62.13;24.60;;;;;;;-1.20;84.02;101701.81;1793193;80;27664;-71
2022/01/19 01:00:27;;;;;;;61.33;25.20;;;;;;;-1.22;83.92;101695.37;1793001;80;25534;-71
2022/01/19 01:02:54;;;;;;;63.55;25.15;;;;;;;-1.21;83.93;101686.89;1793189;80;25629;-71
2022/01/19 01:05:22;;;;;;;57.15;24.57;;;;;;;-1.21;84.14;101680.25;1793092;80;25396;-71
2022/01/19 01:07:48;;;;;;;62.35;26.23;;;;;;;-1.19;84.01;101675.07;1793186;80;25644;-71
2022/01/19 01:10:19;;;;;;;61.23;25.37;;;;;;;-1.18;84.53;101671.90;1793127;80;27472;-71
2022/01/19 01:12:51;;;;;;;75.00;27.05;;;;;;;-1.19;84.52;101668.43;1793119;80;25618;-71
2022/01/19 01:15:47;;;;;;;51.95;24.85;;;;;;;-1.17;84.48;101660.27;1792934;80;25759;-71
2022/01/19 01:20:36;;;;;;;69.15;28.47;;;;;;;-1.15;84.50;101644.95;1764446;80;25634;-71
2022/01/19 01:23:06;;;;;;;64.72;24.82;;;;;;;-1.11;84.51;101646.70;1793121;80;28155;-71
2022/01/19 01:25:33;;;;;;;61.45;25.40;;;;;;;-1.09;84.77;101651.30;1793003;80;27508;-68
2022/01/19 01:27:59;;;;;;;58.85;24.27;;;;;;;-1.10;84.63;101642.52;1793150;80;25588;-68
2022/01/19 01:30:26;;;;;;;61.05;25.25;;;;;;;-1.09;84.78;101640.67;1793145;80;25609;-70
2022/01/19 01:32:52;;;;;;;63.10;25.48;;;;;;;-1.07;84.56;101630.67;1793315;80;25397;-70
2022/01/19 01:35:19;;;;;;;52.78;22.98;;;;;;;-1.07;84.81;101626.69;1793152;80;27520;-72
2022/01/19 01:37:45;;;;;;;49.90;22.15;;;;;;;-1.06;84.59;101625.68;1793149;80;25601;-71
2022/01/19 01:40:15;;;;;;;50.67;22.00;;;;;;;-1.06;84.81;101615.06;1793129;80;25306;-71
2022/01/19 01:42:42;;;;;;;47.70;21.48;;;;;;;-1.03;84.53;101613.34;1793156;80;25717;-69
2022/01/19 01:45:13;;;;;;;47.27;20.77;;;;;;;-1.02;84.54;101604.33;1793087;80;25471;-69
2022/01/19 01:47:49;;;;;;;48.38;20.25;;;;;;;-1.01;84.89;101599.34;1761172;81;27772;-70
2022/01/19 01:55:26;;;;;;;44.98;18.40;;;;;;;-1.00;84.71;101579.75;1761256;81;25566;-70
2022/01/19 01:57:53;;;;;;;44.85;19.37;;;;;;;-0.96;84.69;101580.97;1731170;82;26303;-70
2022/01/19 02:00:24;;;;;;;43.13;18.75;;;;;;;-0.93;84.63;101587.22;1761227;81;27434;-69
2022/01/19 02:02:51;;;;;;;42.45;17.87;;;;;;;-0.92;84.67;101576.88;1680908;83;25810;-69
2022/01/19 02:05:22;;;;;;;41.13;18.65;;;;;;;-0.90;84.58;101568.22;1733099;82;25682;-69
2022/01/19 02:10:36;;;;;;;39.42;17.50;;;;;;;-0.86;84.50;101544.20;1746247;82;25591;-69
2022/01/19 02:15:57;;;;;;;39.45;16.67;;;;;;;-0.82;84.80;101548.60;1746236;82;25649;-69
2022/01/19 02:23:51;;;;;;;41.08;17.02;;;;;;;-0.79;84.68;101550.34;1654020;86;25823;-68
2022/01/19 02:26:26;;;;;;;43.03;19.07;;;;;;;-0.78;85.04;101548.52;1640123;87;27578;-68
2022/01/19 02:42:09;;;;;;;47.30;18.25;;;;;;;-0.67;84.62;101525.31;1653824;86;25783;-69
2022/01/19 02:49:52;;;;;;;47.17;19.80;;;;;;;-0.64;84.66;101510.82;1625832;88;26237;-69
2022/01/19 02:52:21;;;;;;;50.17;19.07;;;;;;;-0.64;84.78;101502.33;1653949;86;27469;-69
2022/01/19 02:54:49;;;;;;;45.17;18.90;;;;;;;-0.64;84.88;101499.67;1655660;82;25870;-69
2022/01/19 02:57:16;;;;;;;44.67;18.67;;;;;;;-0.63;84.73;101493.83;1758707;81;25400;-70
2022/01/19 03:10:41;;;;;;;50.63;18.65;;;;;;;-0.62;85.00;101470.23;1701479;84;25453;-69
2022/01/19 03:13:08;;;;;;;44.40;18.40;;;;;;;-0.62;85.39;101463.59;1701384;84;25766;-69
2022/01/19 03:15:34;;;;;;;49.50;18.23;;;;;;;-0.64;85.21;101445.71;1701467;84;25680;-70
2022/01/19 03:18:01;;;;;;;52.27;18.92;;;;;;;-0.66;85.32;101438.46;1701477;84;28393;-70
2022/01/19 03:20:29;;;;;;;47.53;19.95;;;;;;;-0.68;85.17;101436.01;1701352;84;25534;-70
2022/01/19 03:23:06;;;;;;;50.05;18.30;;;;;;;-0.68;85.37;101431.18;1691576;84;25612;-70
2022/01/19 03:25:37;;;;;;;47.08;19.07;;;;;;;-0.69;85.90;101425.58;1659171;86;25452;-70
2022/01/19 03:27:59;;;;;;;;;;;;;;;-0.71;85.54;101421.80;1786398;80;25460;-70
2022/01/19 03:30:26;;;;;;;45.80;18.43;;;;;;;-0.71;85.61;101427.11;1784684;80;27573;-70
2022/01/19 03:32:52;;;;;;;45.55;19.25;;;;;;;-0.72;85.88;101411.38;1784576;80;27344;-70
2022/01/19 03:35:19;;;;;;;49.63;19.55;;;;;;;-0.75;85.98;101403.28;1754101;80;25574;-69
2022/01/19 03:37:45;;;;;;;45.58;18.45;;;;;;;-0.76;86.18;101403.00;1784649;80;25575;-70
2022/01/19 03:40:13;;;;;;;50.85;18.37;;;;;;;-0.78;86.50;101395.75;1754030;80;25859;-70
2022/01/19 03:42:40;;;;;;;43.48;18.07;;;;;;;-0.79;86.48;101391.45;1784796;80;27602;-70
2022/01/19 03:45:09;;;;;;;49.13;19.37;;;;;;;-0.81;86.52;101385.02;1784676;80;25627;-69
2022/01/19 03:47:46;;;;;;;44.40;18.55;;;;;;;-0.84;86.67;101370.81;1780135;80;25480;-69
2022/01/19 03:50:10;;;;;;;49.58;19.40;;;;;;;-0.83;86.82;101368.98;1784254;80;26050;-69
2022/01/19 03:52:36;;;;;;;43.00;18.40;;;;;;;-0.86;87.08;101365.41;1784943;80;25448;-69
2022/01/19 03:55:06;;;;;;;46.00;17.92;;;;;;;-0.87;87.04;101357.12;1784789;80;27448;-69
2022/01/19 03:57:32;;;;;;;46.65;17.60;;;;;;;-0.87;87.04;101355.31;1754215;80;25639;-69
2022/01/19 03:59:59;;;;;;;45.90;18.00;;;;;;;-0.89;87.34;101352.02;1754205;80;25590;-69
2022/01/19 04:02:27;;;;;;;48.05;18.15;;;;;;;-0.91;87.54;101347.42;1784620;80;25677;-71
2022/01/19 04:05:01;;;;;;;42.23;17.50;;;;;;;-0.90;87.90;101347.74;1784933;80;25566;-71
2022/01/19 04:07:23;;;;;;;44.60;17.73;;;;;;;-0.90;88.06;101354.88;1783931;80;28012;-71
2022/01/19 04:09:49;;;;;;;43.17;17.27;;;;;;;-0.91;88.18;101351.41;1785034;80;25813;-70
2022/01/19 04:12:30;;;;;;;44.30;15.98;;;;;;;-0.91;88.78;101350.08;1785129;80;25618;-70
2022/01/19 04:14:47;;;;;;;47.20;17.62;;;;;;;-0.91;88.68;101347.95;1782801;80;25673;-71
2022/01/19 04:17:16;;;;;;;50.92;18.62;;;;;;;-0.91;89.13;101336.80;1784954;80;25436;-71
2022/01/19 04:19:45;;;;;;;46.08;17.05;;;;;;;-0.92;88.71;101333.02;1785279;80;28093;-70
2022/01/19 04:22:17;;;;;;;46.57;17.63;;;;;;;-0.90;88.61;101326.98;1785029;80;25426;-72
2022/01/19 04:24:45;;;;;;;40.73;16.82;;;;;;;-0.88;88.87;101321.78;1784893;80;25401;-71
2022/01/19 04:29:58;;;;;;;44.95;18.35;;;;;;;-0.86;88.87;101319.73;1784892;80;25382;-71
2022/01/19 04:32:27;;;;;;;46.40;16.90;;;;;;;-0.84;89.44;101332.29;1783550;80;28201;-71
2022/01/19 04:34:50;;;;;;;43.87;16.87;;;;;;;-0.85;89.36;101317.88;1783782;80;25449;-71
2022/01/19 04:45:51;;;;;;;37.55;15.03;;;;;;;-0.76;90.24;101293.55;1784761;80;27508;-71
2022/01/19 05:04:21;;;;;;;39.50;16.97;;;;;;;-0.62;91.40;101263.75;1790334;80;25457;-70
2022/01/19 05:06:33;;;;;;;48.87;17.12;;;;;;;-0.59;91.30;101260.68;1786670;80;25503;-69
2022/01/19 05:09:07;;;;;;;35.33;15.45;;;;;;;-0.57;91.83;101258.62;1790663;80;25484;-69
2022/01/19 05:14:12;;;;;;;42.75;16.97;;;;;;;-0.51;91.83;101245.52;1790551;80;25670;-69
2022/01/19 05:16:39;;;;;;;40.30;16.27;;;;;;;-0.49;91.90;101245.62;1790602;80;25632;-69
2022/01/19 05:19:05;;;;;;;34.38;16.12;;;;;;;-0.47;92.21;101240.91;1790552;80;26049;-70
2022/01/19 05:21:32;;;;;;;33.08;16.05;;;;;;;-0.43;92.01;101238.63;1761851;80;25612;-70
2022/01/19 05:24:03;;;;;;;41.60;17.30;;;;;;;-0.43;92.06;101230.13;1790619;80;28180;-70
2022/01/19 05:26:26;;;;;;;46.50;17.02;;;;;;;-0.39;92.43;101239.85;1789841;80;25389;-70
2022/01/19 05:28:53;;;;;;;41.25;18.52;;;;;;;-0.38;92.31;101231.64;1790663;80;25536;-70
2022/01/19 05:31:19;;;;;;;36.45;15.75;;;;;;;-0.35;92.33;101227.75;1790499;80;25602;-70
2022/01/19 05:33:45;;;;;;;39.92;17.77;;;;;;;-0.32;92.75;101226.50;1761920;80;25418;-70
2022/01/19 05:36:12;;;;;;;43.02;17.90;;;;;;;-0.30;92.21;101221.80;1790599;80;27405;-70
2022/01/19 05:38:38;;;;;;;43.65;17.82;;;;;;;-0.27;92.41;101216.06;1790507;80;25478;-70
2022/01/19 05:41:04;;;;;;;37.88;17.80;;;;;;;-0.26;92.75;101221.67;1790581;80;25447;-70
2022/01/19 05:43:31;;;;;;;36.73;17.45;;;;;;;-0.24;92.72;101211.13;1790582;80;25704;-70
2022/01/19 05:45:57;;;;;;;39.33;17.55;;;;;;;-0.23;92.39;101215.41;1790651;80;25414;-70
2022/01/19 05:48:24;;;;;;;45.00;18.92;;;;;;;-0.18;92.59;101224.59;1790529;80;27477;-70
2022/01/19 05:50:51;;;;;;;44.50;18.40;;;;;;;-0.16;92.69;101216.69;1790519;80;25601;-70
2022/01/19 05:53:17;;;;;;;41.02;18.52;;;;;;;-0.14;92.58;101224.45;1790544;80;25743;-70
2022/01/19 05:55:44;;;;;;;42.73;19.00;;;;;;;-0.09;92.41;101233.94;1790553;80;25623;-70
2022/01/19 05:58:11;;;;;;;45.25;18.10;;;;;;;-0.07;92.49;101230.54;1790573;80;25563;-69
2022/01/19 06:00:38;;;;;;;37.33;18.55;;;;;;;-0.05;93.05;101230.64;1790664;80;27460;-69
2022/01/19 06:03:04;;;;;;;42.60;19.12;;;;;;;-0.02;92.58;101223.56;1757201;81;25433;-69
2022/01/19 06:05:32;;;;;;;45.10;19.27;;;;;;;0.02;92.65;101221.78;1756670;81;25516;-69
2022/01/19 06:08:28;;;;;;;45.30;19.80;;;;;;;0.05;92.38;101227.52;1756629;81;26248;-70
2022/01/19 06:10:46;;;;;;;35.83;18.00;;;;;;;0.08;92.52;101224.39;1754816;81;25490;-69
2022/01/19 06:13:16;;;;;;;42.17;18.57;;;;;;;0.11;92.34;101218.65;1756630;81;28479;-70
2022/01/19 06:15:44;;;;;;;42.38;18.87;;;;;;;0.15;92.41;101217.70;1756583;81;25620;-70
2022/01/19 06:18:12;;;;;;;41.58;18.48;;;;;;;0.17;92.35;101210.30;1756609;81;25537;-70
2022/01/19 06:20:39;;;;;;;40.12;18.67;;;;;;;0.21;92.58;101206.72;1731463;81;25520;-71
2022/01/19 06:23:06;;;;;;;43.85;19.42;;;;;;;0.24;92.66;101209.76;1756667;81;25597;-71
2022/01/19 06:25:33;;;;;;;39.42;18.37;;;;;;;0.25;92.60;101199.39;1756732;81;27651;-71
2022/01/19 06:28:00;;;;;;;38.85;19.45;;;;;;;0.30;92.45;101205.41;1772842;80;25801;-71
2022/01/19 06:30:27;;;;;;;40.63;18.65;;;;;;;0.32;93.12;101196.19;1783002;80;25745;-71
2022/01/19 06:32:53;;;;;;;36.55;19.15;;;;;;;0.35;93.15;101192.25;1783058;80;25483;-71
2022/01/19 06:35:21;;;;;;;39.45;18.15;;;;;;;0.38;93.07;101186.50;1783068;80;25638;-71
2022/01/19 06:37:48;;;;;;;41.25;18.70;;;;;;;0.41;93.08;101179.41;1783090;80;27427;-71
2022/01/19 06:40:18;;;;;;;39.00;18.05;;;;;;;0.43;92.80;101182.66;1782956;80;25774;-71
2022/01/19 06:42:45;;;;;;;42.95;19.50;;;;;;;0.45;92.79;101177.93;1783162;80;25558;-71
2022/01/19 06:45:13;;;;;;;37.48;18.85;;;;;;;0.49;92.74;101179.11;1783015;80;26075;-71
2022/01/19 06:47:40;;;;;;;38.80;18.48;;;;;;;0.52;93.30;101176.01;1783128;80;25407;-71
2022/01/19 06:50:09;;;;;;;38.95;18.32;;;;;;;0.57;92.73;101185.20;1783047;80;28038;-71
2022/01/19 06:52:36;;;;;;;35.65;18.70;;;;;;;0.60;92.84;101182.11;1753639;81;25652;-72
2022/01/19 06:55:05;;;;;;;39.98;19.50;;;;;;;0.63;92.66;101173.66;1757219;81;25590;-72
2022/01/19 06:57:32;;;;;;;35.03;17.92;;;;;;;0.64;92.54;101168.63;1757139;81;25624;-72
2022/01/19 06:59:59;;;;;;;37.25;18.98;;;;;;;0.68;92.62;101173.80;1757228;81;25398;-72
2022/01/19 07:02:28;;;;;;;35.08;17.82;;;;;;;0.69;92.51;101174.91;1756973;81;27467;-71
2022/01/19 07:04:54;;;;;;;36.93;18.25;;;;;;;0.72;92.38;101173.14;1757214;81;26047;-71
2022/01/19 07:07:21;;;;;;;41.92;19.15;;;;;;;0.76;92.34;101173.52;1757121;81;25487;-76
2022/01/19 07:09:47;;;;;;;38.45;18.52;;;;;;;0.78;92.35;101165.30;1757219;81;25611;-72
2022/01/19 07:12:14;;;;;;;34.58;18.57;;;;;;;0.80;92.22;101159.23;1757099;81;25578;-71
2022/01/19 07:14:42;;;;;;;36.20;17.65;;;;;;;0.84;92.19;101157.77;1731836;81;27163;-72
2022/01/19 07:17:09;;;;;;;37.60;19.50;;;;;;;0.86;92.19;101159.69;1756938;81;25416;-71
2022/01/19 07:19:36;;;;;;;40.58;19.15;;;;;;;0.86;92.22;101155.16;1757084;81;25823;-70
2022/01/19 07:22:03;;;;;;;37.40;18.48;;;;;;;0.88;92.13;101153.08;1757153;81;25562;-70
2022/01/19 07:24:30;;;;;;;36.42;18.45;;;;;;;0.91;92.18;101149.17;1779077;80;25514;-70
2022/01/19 07:26:57;;;;;;;34.83;17.98;;;;;;;0.91;92.01;101141.98;1783192;80;27471;-70
2022/01/19 07:29:23;;;;;;;37.65;19.10;;;;;;;0.93;92.02;101139.91;1784513;78;26110;-71
2022/01/19 07:31:50;;;;;;;36.15;17.20;;;;;;;0.96;91.90;101155.17;1791074;80;25724;-71
2022/01/19 07:34:16;;;;;;;38.33;19.27;;;;;;;0.99;91.81;101149.37;1779006;78;25744;-70
2022/01/19 07:36:43;;;;;;;36.15;19.55;;;;;;;0.99;91.73;101144.88;1821648;78;25553;-69
2022/01/19 07:39:09;;;;;;;43.95;19.52;;;;;;;1.03;91.78;101140.72;1821526;78;27515;-69
2022/01/19 07:41:38;;;;;;;36.70;19.90;;;;;;;1.04;91.76;101141.52;1821478;78;25362;-70
2022/01/19 07:44:06;;;;;;;33.35;16.77;;;;;;;1.04;91.87;101142.85;1821637;78;25592;-69
2022/01/19 07:46:32;;;;;;;38.45;20.05;;;;;;;1.06;91.67;101131.47;1821589;78;25575;-69
2022/01/19 07:49:00;;;;;;;33.98;18.67;;;;;;;1.07;91.72;101127.26;1821781;78;25312;-70
2022/01/19 07:51:26;;;;;;;33.80;17.87;;;;;;;1.07;91.63;101117.93;1821518;78;28099;-70
2022/01/19 07:53:53;;;;;;;33.18;17.35;;;;;;;1.10;91.72;101120.65;1821453;78;25828;-68
2022/01/19 07:56:19;;;;;;;35.98;17.77;;;;;;;1.12;91.73;101126.56;1821504;78;25553;-69
2022/01/19 07:58:46;;;;;;;36.40;16.67;;;;;;;1.14;91.44;101122.34;1821538;78;27635;-69
2022/01/19 08:01:13;;;;;;;38.28;18.20;;;;;;;1.17;91.48;101122.70;1820881;78;25406;-69
2022/01/19 08:03:39;;;;;;;35.48;17.60;;;;;;;1.19;91.47;101117.14;1791387;78;28402;-69
2022/01/19 08:06:07;;;;;;;31.70;17.25;;;;;;;1.22;91.39;101110.84;1770265;79;25486;-69
2022/01/19 08:08:35;;;;;;;35.58;17.45;;;;;;;1.26;91.37;101101.87;1797054;79;25442;-69
2022/01/19 08:11:02;;;;;;;37.98;18.77;;;;;;;1.29;91.32;101106.75;1796981;79;27661;-69
2022/01/19 08:13:29;;;;;;;35.52;17.05;;;;;;;1.34;91.24;101099.41;1797092;79;25719;-70
2022/01/19 08:15:55;;;;;;;35.90;16.62;;;;;;;1.37;91.16;101101.63;1797042;79;27472;-70
2022/01/19 08:18:22;;;;;;;39.03;18.10;;;;;;;1.39;91.01;101096.88;1796900;79;25768;-70
2022/01/19 08:20:48;;;;;;;41.42;18.80;;;;;;;1.44;90.94;101094.34;1797085;79;25601;-71
2022/01/19 08:23:15;;;;;;;34.45;16.70;;;;;;;1.42;90.67;101088.43;1796878;79;25577;-70
2022/01/19 08:25:41;;;;;;;34.18;18.57;;;;;;;1.43;90.59;101093.53;1797171;79;25397;-70
2022/01/19 08:28:10;;;;;;;44.67;20.65;;;;;;;1.42;90.58;101089.77;1797057;79;27459;-69
2022/01/19 08:30:38;;;;;;;;;;;;;;;1.43;90.61;101077.54;1799704;79;25687;-70
2022/01/19 08:33:05;;;;;;;34.20;18.20;;;;;;;1.46;90.60;101085.59;1797016;79;25632;-71
2022/01/19 08:35:32;;;;;;;36.42;17.85;;;;;;;1.48;90.59;101088.83;1797027;79;25703;-71
2022/01/19 08:37:58;;;;;;;41.10;18.23;;;;;;;1.49;90.45;101085.14;1797140;79;25491;-70
2022/01/19 08:40:26;;;;;;;36.17;19.30;;;;;;;1.49;90.37;101079.27;1769882;79;27982;-71
2022/01/19 08:42:53;;;;;;;35.85;18.48;;;;;;;1.52;90.33;101080.69;1796779;79;25894;-70
2022/01/19 08:45:20;;;;;;;30.92;18.35;;;;;;;1.55;90.24;101067.40;1796936;79;25467;-71
2022/01/19 08:47:47;;;;;;;33.67;18.27;;;;;;;1.57;90.27;101064.01;1796971;79;25724;-73
2022/01/19 08:50:16;;;;;;;32.53;18.15;;;;;;;1.59;90.21;101057.39;1797020;79;25394;-72
2022/01/19 08:52:45;;;;;;;31.97;17.25;;;;;;;1.61;90.14;101055.83;1797298;79;27508;-71
2022/01/19 08:55:11;;;;;;;34.38;18.15;;;;;;;1.63;90.13;101051.87;1796849;79;25764;-73
2022/01/19 08:57:38;;;;;;;36.58;18.50;;;;;;;1.66;90.00;101047.95;1797022;79;25525;-70
2022/01/19 09:00:12;;;;;;;34.38;18.98;;;;;;;1.68;89.89;101053.33;1797051;79;26153;-71
2022/01/19 09:02:40;;;;;;;32.17;17.35;;;;;;;1.70;89.78;101042.42;1797076;79;25344;-71
2022/01/19 09:05:09;;;;;;;34.83;18.02;;;;;;;1.67;89.46;101038.38;1785262;79;27354;-71
2022/01/19 09:07:35;;;;;;;35.08;17.98;;;;;;;1.66;89.42;101041.28;1783981;80;25534;-69
2022/01/19 09:10:04;;;;;;;33.20;17.10;;;;;;;1.64;89.36;101034.84;1783945;80;25450;-71
2022/01/19 09:12:30;;;;;;;37.27;18.03;;;;;;;1.65;89.29;101047.64;1747653;82;25710;-71
2022/01/19 09:14:57;;;;;;;34.48;17.80;;;;;;;1.63;89.29;101041.73;1747567;82;25467;-71
2022/01/19 09:17:24;;;;;;;41.58;19.05;;;;;;;1.63;89.33;101041.20;1687298;85;27537;-72
2022/01/19 09:19:50;;;;;;;35.92;18.55;;;;;;;1.63;89.39;101037.73;1687420;85;25704;-72
2022/01/19 09:22:17;;;;;;;38.90;18.45;;;;;;;1.65;89.40;101032.97;1687388;85;25520;-73
2022/01/19 09:24:44;;;;;;;35.15;17.30;;;;;;;1.67;89.46;101032.25;1687459;85;25485;-73
2022/01/19 09:27:13;;;;;;;37.23;18.27;;;;;;;1.66;89.38;101016.74;1687390;85;25572;-72
2022/01/19 09:29:42;;;;;;;32.78;18.73;;;;;;;1.71;89.44;101022.72;1687696;85;27533;-72
2022/01/19 09:32:11;;;;;;;31.40;18.40;;;;;;;1.73;89.39;101012.63;1687452;85;25715;-72
2022/01/19 09:34:42;;;;;;;35.33;19.05;;;;;;;1.75;89.40;101005.20;1684016;85;25472;-72
2022/01/19 09:37:09;;;;;;;31.20;17.52;;;;;;;1.78;89.41;101015.94;1687315;85;26088;-72
2022/01/19 09:39:36;;;;;;;32.55;18.32;;;;;;;1.79;89.17;100999.70;1651689;86;25569;-72
2022/01/19 09:42:06;;;;;;;32.93;18.00;;;;;;;1.79;89.25;100998.38;1651798;86;27448;-71
2022/01/19 09:44:33;;;;;;;35.65;19.07;;;;;;;1.80;89.01;100992.51;1683624;84;25785;-72
2022/01/19 09:47:00;;;;;;;39.73;18.98;;;;;;;1.80;89.07;100991.17;1687160;85;25669;-73
2022/01/19 09:49:27;;;;;;;37.08;18.70;;;;;;;1.79;88.92;100982.37;1713072;83;26147;-72
2022/01/19 09:51:54;;;;;;;34.27;18.73;;;;;;;1.82;89.02;100982.41;1715984;83;25636;-70
2022/01/19 09:54:24;;;;;;;37.98;19.87;;;;;;;1.83;88.92;100990.72;1715891;83;27585;-70
2022/01/19 09:56:53;;;;;;;40.35;20.20;;;;;;;1.83;88.85;100986.17;1715851;83;25760;-71
2022/01/19 09:59:20;;;;;;;40.95;19.67;;;;;;;1.84;88.99;100974.47;1715865;83;25423;-71
2022/01/19 10:02:01;;;;;;;37.50;20.00;;;;;;;1.91;88.88;100972.19;1715940;83;25752;-71
2022/01/19 10:04:31;;;;;;;40.80;19.82;;;;;;;1.91;88.71;100974.35;1711774;83;26250;-71
2022/01/19 10:07:24;;;;;;;45.15;21.30;;;;;;;1.94;88.88;100965.89;1744165;82;28313;-71
2022/01/19 10:09:58;;;;;;;40.73;19.45;;;;;;;1.97;88.68;100967.26;1751624;80;25530;-71
2022/01/19 10:18:29;;;;;;;38.30;19.25;;;;;;;2.01;88.38;100969.73;1786220;80;25734;-71
2022/01/19 10:21:15;;;;;;;38.70;19.27;;;;;;;1.98;88.16;100957.69;1790970;80;28361;-71
2022/01/19 10:23:48;;;;;;;34.98;19.25;;;;;;;2.01;88.33;100972.41;1790951;80;25701;-71
2022/01/19 10:26:25;;;;;;;40.08;20.20;;;;;;;2.02;88.36;100961.50;1790785;80;25416;-72
2022/01/19 10:29:07;;;;;;;38.27;19.83;;;;;;;2.04;88.24;100961.27;1791391;80;25464;-72
2022/01/19 10:31:38;;;;;;;51.13;24.98;;;;;;;2.03;87.96;100956.45;1786410;80;25410;-71
2022/01/19 10:34:21;;;;;;;39.08;19.62;;;;;;;2.00;88.07;100952.92;1791106;80;27483;-71
2022/01/19 10:36:57;;;;;;;36.85;20.37;;;;;;;2.02;87.87;100946.02;1791024;80;25564;-71
2022/01/19 10:39:29;;;;;;;35.75;18.70;;;;;;;1.99;87.82;100947.81;1790968;80;25664;-71
2022/01/19 10:42:13;;;;;;;39.85;18.17;;;;;;;1.98;87.74;100937.67;1787151;80;25489;-71
2022/01/19 10:44:47;;;;;;;39.70;19.55;;;;;;;1.97;87.73;100925.37;1791079;80;25387;-70
2022/01/19 10:47:17;;;;;;;38.10;19.80;;;;;;;1.98;87.94;100931.00;1790396;80;27517;-70
2022/01/19 10:49:57;;;;;;;38.48;20.37;;;;;;;2.00;87.96;100934.77;1790774;80;25908;-70
2022/01/19 10:52:56;;;;;;;34.33;19.25;;;;;;;2.00;87.84;100925.44;1760214;80;25693;-70
2022/01/19 10:55:41;;;;;;;34.18;18.90;;;;;;;2.00;87.83;100911.56;1662299;86;25595;-70
2022/01/19 10:58:14;;;;;;;38.58;21.05;;;;;;;1.98;87.69;100919.00;1662303;86;26377;-70
2022/01/19 11:00:51;;;;;;;42.95;19.80;;;;;;;1.97;87.58;100913.89;1662278;86;27651;-70
2022/01/19 11:03:25;;;;;;;43.48;19.90;;;;;;;1.96;87.67;100917.59;1662038;86;25721;-69
2022/01/19 11:06:01;;;;;;;37.65;20.27;;;;;;;1.97;87.90;100916.03;1662268;86;25744;-70
2022/01/19 11:08:29;;;;;;;41.98;19.15;;;;;;;1.98;87.71;100908.86;1662317;86;26305;-72
2022/01/19 11:11:01;;;;;;;42.20;20.48;;;;;;;1.97;87.70;100905.89;1662366;86;25658;-72
2022/01/19 11:13:32;;;;;;;39.35;19.45;;;;;;;1.96;87.63;100907.76;1662209;86;27540;-72
2022/01/19 11:16:01;;;;;;;34.83;19.62;;;;;;;1.97;87.80;100909.36;1661878;86;25598;-72
2022/01/19 11:18:30;;;;;;;43.10;19.17;;;;;;;1.96;87.71;100901.09;1662484;82;25671;-71
2022/01/19 11:21:05;;;;;;;40.60;20.27;;;;;;;1.96;87.64;100905.09;1732044;82;25629;-72
2022/01/19 11:23:39;;;;;;;41.73;20.75;;;;;;;1.96;87.66;100889.08;1731667;82;25412;-71
2022/01/19 11:26:13;;;;;;;48.08;20.55;;;;;;;1.95;87.61;100886.64;1732183;82;28073;-72
2022/01/19 11:28:47;;;;;;;44.55;21.93;;;;;;;1.96;87.75;100870.91;1732077;82;25450;-72
2022/01/19 11:31:24;;;;;;;38.30;20.88;;;;;;;1.97;87.72;100873.34;1732240;82;25551;-72
2022/01/19 11:33:56;;;;;;;39.95;20.20;;;;;;;1.99;87.59;100863.77;1724923;82;25495;-73
2022/01/19 11:36:30;;;;;;;45.75;21.75;;;;;;;1.98;87.47;100863.50;1729633;82;25632;-73
2022/01/19 11:39:21;;;;;;;42.95;21.77;;;;;;;1.97;87.47;100868.00;1732155;82;28003;-73
2022/01/19 11:41:54;;;;;;;35.05;19.80;;;;;;;1.98;87.66;100868.83;1732129;82;25449;-72
2022/01/19 11:44:32;;;;;;;38.05;19.60;;;;;;;2.02;87.82;100860.63;1732116;82;25676;-72
2022/01/19 11:47:16;;;;;;;41.48;21.27;;;;;;;2.04;87.83;100846.52;1732249;82;25559;-72
2022/01/19 11:50:04;;;;;;;37.20;20.85;;;;;;;2.03;87.59;100838.24;1729576;82;25559;-72
2022/01/19 11:52:40;;;;;;;36.65;21.05;;;;;;;2.02;87.49;100837.41;1732152;82;27527;-72
2022/01/19 11:55:26;;;;;;;37.63;20.82;;;;;;;2.02;87.58;100840.08;1732020;82;25571;-72
2022/01/19 11:58:17;;;;;;;41.28;20.37;;;;;;;2.02;87.41;100832.08;1732114;82;25634;-73
2022/01/19 12:00:47;;;;;;;44.05;21.27;;;;;;;2.04;87.61;100824.66;1732220;82;25633;-73
2022/01/19 12:03:28;;;;;;;35.17;20.43;;;;;;;2.05;87.55;100816.92;1732128;82;25608;-73
2022/01/19 12:05:56;;;;;;;35.65;19.77;;;;;;;2.08;87.48;100820.98;1732246;82;27609;-71
2022/01/19 12:08:29;;;;;;;36.40;19.82;;;;;;;2.07;87.46;100812.69;1732100;82;25586;-71
2022/01/19 12:11:01;;;;;;;40.48;20.92;;;;;;;2.07;87.34;100812.69;1732284;82;25758;-71
2022/01/19 12:16:37;;;;;;;46.42;21.40;;;;;;;2.08;87.36;100796.97;1732327;82;25411;-72
2022/01/19 12:19:13;;;;;;;39.73;20.85;;;;;;;2.11;87.68;100793.00;1732162;82;27524;-72
2022/01/19 12:22:02;;;;;;;39.83;20.62;;;;;;;2.15;87.53;100784.81;1732270;82;25430;-72
2022/01/19 12:24:37;;;;;;;42.25;21.17;;;;;;;2.13;87.14;100781.05;1732253;82;25633;-72
2022/01/19 12:27:15;;;;;;;36.53;20.25;;;;;;;2.12;87.13;100775.41;1732288;82;26075;-71
2022/01/19 12:30:07;;;;;;;39.30;20.72;;;;;;;2.12;86.99;100772.75;1731961;82;25405;-72
2022/01/19 12:32:45;;;;;;;46.63;22.17;;;;;;;2.11;87.03;100771.14;1732396;82;28247;-71
2022/01/19 12:35:34;;;;;;;39.18;21.42;;;;;;;2.11;87.00;100767.64;1731680;82;25575;-71
2022/01/19 12:38:06;;;;;;;40.30;22.52;;;;;;;2.08;86.87;100762.78;1732463;82;25514;-72
2022/01/19 12:40:40;;;;;;;38.83;21.77;;;;;;;2.05;86.88;100754.22;1704940;82;25638;-72
2022/01/19 12:43:29;;;;;;;37.40;21.87;;;;;;;2.05;87.00;100756.88;1732287;82;25399;-73
2022/01/19 12:45:57;;;;;;;41.05;22.98;;;;;;;2.07;87.07;100752.64;1732500;82;27463;-71
2022/01/19 12:48:37;;;;;;;42.83;22.70;;;;;;;2.05;87.08;100752.08;1705107;82;26415;-72
2022/01/19 12:51:04;;;;;;;40.12;23.55;;;;;;;2.05;86.97;100752.88;1732194;82;25469;-73
2022/01/19 12:53:31;;;;;;;36.90;22.40;;;;;;;2.07;87.01;100745.17;1703985;82;25540;-74